sensor_id;sensor_type;location;lat;lon;timestamp;P1;durP1;ratioP1;P2;durP2;ratioP2
22287;SDS011;11312;51.464;6.968;2023-03-11T00:01:40;5.57;;;2.35;;
22287;SDS011;11312;51.464;6.968;2023-03-11T00:04:06;6.22;;;2.47;;
22287;SDS011;11312;51.464;6.968;2023-03-11T00:06:35;5.47;;;2.20;;
22287;SDS011;11312;51.464;6.968;2023-03-11T00:09:00;5.90;;;2.38;;
22287;SDS011;11312;51.464;6.968;2023-03-11T00:11:26;5.38;;;2.22;;
22287;SDS011;11312;51.464;6.968;2023-03-11T00:13:52;5.63;;;2.25;;
22287;SDS011;11312;51.464;6.968;2023-03-11T00:16:17;6.13;;;2.47;;
22287;SDS011;11312;51.464;6.968;2023-03-11T00:18:43;6.20;;;2.40;;
22287;SDS011;11312;51.464;6.968;2023-03-11T00:21:13;5.95;;;2.35;;
22287;SDS011;11312;51.464;6.968;2023-03-11T00:23:40;6.78;;;2.58;;
22287;SDS011;11312;51.464;6.968;2023-03-11T00:26:06;5.20;;;2.20;;
22287;SDS011;11312;51.464;6.968;2023-03-11T00:28:32;6.15;;;2.40;;
22287;SDS011;11312;51.464;6.968;2023-03-11T00:30:58;6.05;;;2.40;;
22287;SDS011;11312;51.464;6.968;2023-03-11T00:33:23;6.10;;;2.38;;
22287;SDS011;11312;51.464;6.968;2023-03-11T00:35:49;5.15;;;2.10;;
22287;SDS011;11312;51.464;6.968;2023-03-11T00:38:15;6.28;;;2.72;;
22287;SDS011;11312;51.464;6.968;2023-03-11T00:40:42;5.55;;;2.33;;
22287;SDS011;11312;51.464;6.968;2023-03-11T00:43:09;6.50;;;2.50;;
22287;SDS011;11312;51.464;6.968;2023-03-11T00:45:35;5.18;;;2.15;;
22287;SDS011;11312;51.464;6.968;2023-03-11T00:48:01;6.85;;;2.63;;
22287;SDS011;11312;51.464;6.968;2023-03-11T00:50:29;6.57;;;2.55;;
22287;SDS011;11312;51.464;6.968;2023-03-11T00:52:57;4.80;;;2.00;;
22287;SDS011;11312;51.464;6.968;2023-03-11T00:55:25;5.47;;;2.20;;
22287;SDS011;11312;51.464;6.968;2023-03-11T00:57:54;6.32;;;2.47;;
22287;SDS011;11312;51.464;6.968;2023-03-11T01:00:21;6.68;;;2.50;;
22287;SDS011;11312;51.464;6.968;2023-03-11T01:02:48;4.72;;;2.08;;
22287;SDS011;11312;51.464;6.968;2023-03-11T01:05:14;5.80;;;2.30;;
22287;SDS011;11312;51.464;6.968;2023-03-11T01:07:39;5.35;;;2.20;;
22287;SDS011;11312;51.464;6.968;2023-03-11T01:10:06;6.35;;;2.47;;
22287;SDS011;11312;51.464;6.968;2023-03-11T01:12:32;5.78;;;2.40;;
22287;SDS011;11312;51.464;6.968;2023-03-11T01:14:58;6.60;;;3.03;;
22287;SDS011;11312;51.464;6.968;2023-03-11T01:17:24;6.22;;;2.45;;
22287;SDS011;11312;51.464;6.968;2023-03-11T01:19:49;5.10;;;2.15;;
22287;SDS011;11312;51.464;6.968;2023-03-11T01:22:15;6.25;;;2.45;;
22287;SDS011;11312;51.464;6.968;2023-03-11T01:24:41;5.35;;;2.20;;
22287;SDS011;11312;51.464;6.968;2023-03-11T01:27:06;5.30;;;2.15;;
22287;SDS011;11312;51.464;6.968;2023-03-11T01:29:32;6.13;;;2.58;;
22287;SDS011;11312;51.464;6.968;2023-03-11T01:31:58;6.85;;;2.60;;
22287;SDS011;11312;51.464;6.968;2023-03-11T01:34:23;6.05;;;2.42;;
22287;SDS011;11312;51.464;6.968;2023-03-11T01:36:49;7.15;;;2.80;;
22287;SDS011;11312;51.464;6.968;2023-03-11T01:39:15;5.32;;;2.20;;
22287;SDS011;11312;51.464;6.968;2023-03-11T01:41:40;6.35;;;2.65;;
22287;SDS011;11312;51.464;6.968;2023-03-11T01:44:06;5.38;;;2.20;;
22287;SDS011;11312;51.464;6.968;2023-03-11T01:49:16;6.85;;;2.60;;
22287;SDS011;11312;51.464;6.968;2023-03-11T01:51:43;7.18;;;2.72;;
22287;SDS011;11312;51.464;6.968;2023-03-11T01:54:13;5.60;;;2.30;;
22287;SDS011;11312;51.464;6.968;2023-03-11T01:56:44;6.85;;;2.83;;
22287;SDS011;11312;51.464;6.968;2023-03-11T01:59:12;6.38;;;2.53;;
22287;SDS011;11312;51.464;6.968;2023-03-11T02:01:43;6.28;;;2.53;;
22287;SDS011;11312;51.464;6.968;2023-03-11T02:04:17;5.72;;;2.30;;
22287;SDS011;11312;51.464;6.968;2023-03-11T02:06:44;6.07;;;2.42;;
22287;SDS011;11312;51.464;6.968;2023-03-11T02:09:09;5.93;;;2.35;;
22287;SDS011;11312;51.464;6.968;2023-03-11T02:11:35;6.40;;;2.67;;
22287;SDS011;11312;51.464;6.968;2023-03-11T02:14:01;6.70;;;2.55;;
22287;SDS011;11312;51.464;6.968;2023-03-11T02:16:28;5.88;;;2.35;;
22287;SDS011;11312;51.464;6.968;2023-03-11T02:18:55;6.38;;;2.53;;
22287;SDS011;11312;51.464;6.968;2023-03-11T02:21:25;6.40;;;2.50;;
22287;SDS011;11312;51.464;6.968;2023-03-11T02:26:40;5.57;;;2.40;;
22287;SDS011;11312;51.464;6.968;2023-03-11T02:29:22;5.18;;;2.20;;
22287;SDS011;11312;51.464;6.968;2023-03-11T02:31:50;6.18;;;2.45;;
22287;SDS011;11312;51.464;6.968;2023-03-11T02:34:20;6.18;;;2.40;;
22287;SDS011;11312;51.464;6.968;2023-03-11T02:36:53;5.93;;;2.50;;
22287;SDS011;11312;51.464;6.968;2023-03-11T02:42:18;7.57;;;3.15;;
22287;SDS011;11312;51.464;6.968;2023-03-11T02:45:06;6.28;;;2.53;;
22287;SDS011;11312;51.464;6.968;2023-03-11T02:47:34;6.65;;;3.13;;
22287;SDS011;11312;51.464;6.968;2023-03-11T02:50:02;5.15;;;2.15;;
22287;SDS011;11312;51.464;6.968;2023-03-11T02:52:28;6.25;;;2.50;;
22287;SDS011;11312;51.464;6.968;2023-03-11T02:54:57;5.95;;;2.40;;
22287;SDS011;11312;51.464;6.968;2023-03-11T02:57:23;6.55;;;2.70;;
22287;SDS011;11312;51.464;6.968;2023-03-11T02:59:49;6.90;;;2.97;;
22287;SDS011;11312;51.464;6.968;2023-03-11T03:02:14;5.63;;;2.35;;
22287;SDS011;11312;51.464;6.968;2023-03-11T03:04:40;6.13;;;2.53;;
22287;SDS011;11312;51.464;6.968;2023-03-11T03:07:05;5.80;;;2.30;;
22287;SDS011;11312;51.464;6.968;2023-03-11T03:09:31;8.60;;;3.88;;
22287;SDS011;11312;51.464;6.968;2023-03-11T03:11:58;7.32;;;2.85;;
22287;SDS011;11312;51.464;6.968;2023-03-11T03:14:24;6.32;;;2.83;;
22287;SDS011;11312;51.464;6.968;2023-03-11T03:16:49;5.85;;;2.25;;
22287;SDS011;11312;51.464;6.968;2023-03-11T03:19:15;7.30;;;2.90;;
22287;SDS011;11312;51.464;6.968;2023-03-11T03:21:41;6.50;;;3.08;;
22287;SDS011;11312;51.464;6.968;2023-03-11T03:24:06;6.07;;;2.42;;
22287;SDS011;11312;51.464;6.968;2023-03-11T03:26:32;7.03;;;2.65;;
22287;SDS011;11312;51.464;6.968;2023-03-11T03:28:58;6.78;;;2.60;;
22287;SDS011;11312;51.464;6.968;2023-03-11T03:31:23;6.25;;;2.40;;
22287;SDS011;11312;51.464;6.968;2023-03-11T03:33:49;6.80;;;2.80;;
22287;SDS011;11312;51.464;6.968;2023-03-11T03:36:15;6.47;;;2.50;;
22287;SDS011;11312;51.464;6.968;2023-03-11T03:38:40;6.18;;;2.47;;
22287;SDS011;11312;51.464;6.968;2023-03-11T03:41:07;6.65;;;2.65;;
22287;SDS011;11312;51.464;6.968;2023-03-11T03:43:33;7.45;;;2.80;;
22287;SDS011;11312;51.464;6.968;2023-03-11T03:46:00;6.25;;;2.47;;
22287;SDS011;11312;51.464;6.968;2023-03-11T03:48:27;5.93;;;2.50;;
22287;SDS011;11312;51.464;6.968;2023-03-11T03:50:53;5.40;;;2.20;;
22287;SDS011;11312;51.464;6.968;2023-03-11T03:53:19;7.10;;;2.75;;
22287;SDS011;11312;51.464;6.968;2023-03-11T03:55:45;7.35;;;2.67;;
22287;SDS011;11312;51.464;6.968;2023-03-11T03:58:11;6.88;;;2.85;;
22287;SDS011;11312;51.464;6.968;2023-03-11T04:00:37;5.40;;;2.35;;
22287;SDS011;11312;51.464;6.968;2023-03-11T04:03:03;7.35;;;2.78;;
22287;SDS011;11312;51.464;6.968;2023-03-11T04:05:29;6.43;;;2.45;;
22287;SDS011;11312;51.464;6.968;2023-03-11T04:07:56;7.10;;;2.67;;
22287;SDS011;11312;51.464;6.968;2023-03-11T04:10:21;6.20;;;2.40;;
22287;SDS011;11312;51.464;6.968;2023-03-11T04:12:47;8.25;;;3.13;;
22287;SDS011;11312;51.464;6.968;2023-03-11T04:15:13;6.30;;;2.45;;
22287;SDS011;11312;51.464;6.968;2023-03-11T04:17:38;7.80;;;3.05;;
22287;SDS011;11312;51.464;6.968;2023-03-11T04:20:04;7.15;;;2.60;;
22287;SDS011;11312;51.464;6.968;2023-03-11T04:22:34;7.03;;;2.65;;
22287;SDS011;11312;51.464;6.968;2023-03-11T04:25:00;7.75;;;2.90;;
22287;SDS011;11312;51.464;6.968;2023-03-11T04:27:26;7.97;;;2.85;;
22287;SDS011;11312;51.464;6.968;2023-03-11T04:29:51;6.93;;;2.65;;
22287;SDS011;11312;51.464;6.968;2023-03-11T04:32:17;6.75;;;2.83;;
22287;SDS011;11312;51.464;6.968;2023-03-11T04:34:42;7.32;;;2.95;;
22287;SDS011;11312;51.464;6.968;2023-03-11T04:37:08;7.35;;;3.53;;
22287;SDS011;11312;51.464;6.968;2023-03-11T04:39:34;6.50;;;2.50;;
22287;SDS011;11312;51.464;6.968;2023-03-11T04:41:59;6.28;;;2.47;;
22287;SDS011;11312;51.464;6.968;2023-03-11T04:44:25;6.93;;;2.70;;
22287;SDS011;11312;51.464;6.968;2023-03-11T04:46:51;6.25;;;2.42;;
22287;SDS011;11312;51.464;6.968;2023-03-11T04:49:16;7.72;;;3.10;;
22287;SDS011;11312;51.464;6.968;2023-03-11T04:51:42;7.90;;;3.08;;
22287;SDS011;11312;51.464;6.968;2023-03-11T04:54:08;6.88;;;2.58;;
22287;SDS011;11312;51.464;6.968;2023-03-11T04:56:33;6.82;;;2.72;;
22287;SDS011;11312;51.464;6.968;2023-03-11T04:58:59;6.97;;;2.70;;
22287;SDS011;11312;51.464;6.968;2023-03-11T05:01:25;6.13;;;2.47;;
22287;SDS011;11312;51.464;6.968;2023-03-11T05:03:51;8.98;;;3.35;;
22287;SDS011;11312;51.464;6.968;2023-03-11T05:06:17;5.70;;;2.28;;
22287;SDS011;11312;51.464;6.968;2023-03-11T05:08:42;7.55;;;3.08;;
22287;SDS011;11312;51.464;6.968;2023-03-11T05:11:08;6.93;;;2.60;;
22287;SDS011;11312;51.464;6.968;2023-03-11T05:13:34;7.97;;;2.92;;
22287;SDS011;11312;51.464;6.968;2023-03-11T05:15:59;6.80;;;2.53;;
22287;SDS011;11312;51.464;6.968;2023-03-11T05:18:25;5.80;;;2.33;;
22287;SDS011;11312;51.464;6.968;2023-03-11T05:20:51;7.28;;;2.70;;
22287;SDS011;11312;51.464;6.968;2023-03-11T05:23:17;7.28;;;2.60;;
22287;SDS011;11312;51.464;6.968;2023-03-11T05:25:43;6.55;;;2.50;;
22287;SDS011;11312;51.464;6.968;2023-03-11T05:28:08;6.25;;;2.42;;
22287;SDS011;11312;51.464;6.968;2023-03-11T05:30:34;6.65;;;2.67;;
22287;SDS011;11312;51.464;6.968;2023-03-11T05:33:00;6.95;;;2.65;;
22287;SDS011;11312;51.464;6.968;2023-03-11T05:35:26;6.85;;;2.90;;
22287;SDS011;11312;51.464;6.968;2023-03-11T05:37:52;5.30;;;2.20;;
22287;SDS011;11312;51.464;6.968;2023-03-11T05:40:18;7.82;;;2.95;;
22287;SDS011;11312;51.464;6.968;2023-03-11T05:42:45;6.45;;;2.47;;
22287;SDS011;11312;51.464;6.968;2023-03-11T05:45:10;8.85;;;4.03;;
22287;SDS011;11312;51.464;6.968;2023-03-11T05:47:36;7.85;;;2.95;;
22287;SDS011;11312;51.464;6.968;2023-03-11T05:50:02;6.93;;;2.67;;
22287;SDS011;11312;51.464;6.968;2023-03-11T05:52:28;7.22;;;2.70;;
22287;SDS011;11312;51.464;6.968;2023-03-11T05:54:56;6.07;;;2.42;;
22287;SDS011;11312;51.464;6.968;2023-03-11T05:57:22;7.32;;;2.83;;
22287;SDS011;11312;51.464;6.968;2023-03-11T05:59:47;5.90;;;2.38;;
22287;SDS011;11312;51.464;6.968;2023-03-11T06:02:13;6.70;;;2.72;;
22287;SDS011;11312;51.464;6.968;2023-03-11T06:04:39;6.43;;;2.67;;
22287;SDS011;11312;51.464;6.968;2023-03-11T06:07:04;5.82;;;2.30;;
22287;SDS011;11312;51.464;6.968;2023-03-11T06:09:30;5.82;;;2.30;;
22287;SDS011;11312;51.464;6.968;2023-03-11T06:11:56;7.50;;;2.78;;
22287;SDS011;11312;51.464;6.968;2023-03-11T06:14:21;9.38;;;3.38;;
22287;SDS011;11312;51.464;6.968;2023-03-11T06:16:47;6.35;;;2.60;;
22287;SDS011;11312;51.464;6.968;2023-03-11T06:19:12;7.30;;;2.92;;
22287;SDS011;11312;51.464;6.968;2023-03-11T06:21:38;5.95;;;2.40;;
22287;SDS011;11312;51.464;6.968;2023-03-11T06:24:04;11.23;;;3.33;;
22287;SDS011;11312;51.464;6.968;2023-03-11T06:26:30;6.53;;;2.63;;
22287;SDS011;11312;51.464;6.968;2023-03-11T06:28:56;6.82;;;2.63;;
22287;SDS011;11312;51.464;6.968;2023-03-11T06:31:23;6.15;;;2.47;;
22287;SDS011;11312;51.464;6.968;2023-03-11T06:33:51;6.10;;;2.45;;
22287;SDS011;11312;51.464;6.968;2023-03-11T06:36:18;6.55;;;2.58;;
22287;SDS011;11312;51.464;6.968;2023-03-11T06:38:44;7.55;;;2.88;;
22287;SDS011;11312;51.464;6.968;2023-03-11T06:41:10;7.88;;;3.20;;
22287;SDS011;11312;51.464;6.968;2023-03-11T06:43:36;5.72;;;2.30;;
22287;SDS011;11312;51.464;6.968;2023-03-11T06:46:09;8.18;;;3.65;;
22287;SDS011;11312;51.464;6.968;2023-03-11T06:48:36;8.35;;;3.10;;
22287;SDS011;11312;51.464;6.968;2023-03-11T06:51:03;7.15;;;3.05;;
22287;SDS011;11312;51.464;6.968;2023-03-11T06:53:29;6.53;;;2.88;;
22287;SDS011;11312;51.464;6.968;2023-03-11T06:58:30;6.47;;;2.53;;
22287;SDS011;11312;51.464;6.968;2023-03-11T07:01:00;5.82;;;2.33;;
22287;SDS011;11312;51.464;6.968;2023-03-11T07:03:26;5.80;;;2.30;;
22287;SDS011;11312;51.464;6.968;2023-03-11T07:05:52;7.75;;;3.17;;
22287;SDS011;11312;51.464;6.968;2023-03-11T07:08:18;5.78;;;2.30;;
22287;SDS011;11312;51.464;6.968;2023-03-11T07:10:44;7.70;;;2.90;;
22287;SDS011;11312;51.464;6.968;2023-03-11T07:13:10;8.55;;;3.35;;
22287;SDS011;11312;51.464;6.968;2023-03-11T07:15:35;6.18;;;2.40;;
22287;SDS011;11312;51.464;6.968;2023-03-11T07:18:01;6.10;;;2.45;;
22287;SDS011;11312;51.464;6.968;2023-03-11T07:20:27;5.68;;;2.30;;
22287;SDS011;11312;51.464;6.968;2023-03-11T07:22:52;7.32;;;2.67;;
22287;SDS011;11312;51.464;6.968;2023-03-11T07:25:18;6.45;;;2.50;;
22287;SDS011;11312;51.464;6.968;2023-03-11T07:27:43;5.22;;;2.20;;
22287;SDS011;11312;51.464;6.968;2023-03-11T07:30:09;5.97;;;2.40;;
22287;SDS011;11312;51.464;6.968;2023-03-11T07:32:35;5.75;;;2.38;;
22287;SDS011;11312;51.464;6.968;2023-03-11T07:35:02;6.53;;;2.60;;
22287;SDS011;11312;51.464;6.968;2023-03-11T07:37:28;6.50;;;2.63;;
22287;SDS011;11312;51.464;6.968;2023-03-11T07:39:53;4.35;;;1.90;;
22287;SDS011;11312;51.464;6.968;2023-03-11T07:42:19;5.32;;;2.13;;
22287;SDS011;11312;51.464;6.968;2023-03-11T07:44:45;4.40;;;1.90;;
22287;SDS011;11312;51.464;6.968;2023-03-11T07:47:10;4.28;;;1.90;;
22287;SDS011;11312;51.464;6.968;2023-03-11T07:49:36;4.93;;;2.35;;
22287;SDS011;11312;51.464;6.968;2023-03-11T07:52:02;7.97;;;2.60;;
22287;SDS011;11312;51.464;6.968;2023-03-11T07:54:27;3.65;;;1.77;;
22287;SDS011;11312;51.464;6.968;2023-03-11T07:56:53;4.05;;;1.85;;
22287;SDS011;11312;51.464;6.968;2023-03-11T07:59:19;3.42;;;1.80;;
22287;SDS011;11312;51.464;6.968;2023-03-11T08:01:45;3.63;;;1.83;;
22287;SDS011;11312;51.464;6.968;2023-03-11T08:04:12;4.55;;;2.15;;
22287;SDS011;11312;51.464;6.968;2023-03-11T08:06:41;3.45;;;1.60;;
22287;SDS011;11312;51.464;6.968;2023-03-11T08:09:08;3.10;;;1.67;;
22287;SDS011;11312;51.464;6.968;2023-03-11T08:11:35;3.17;;;1.65;;
22287;SDS011;11312;51.464;6.968;2023-03-11T08:14:01;3.13;;;1.50;;
22287;SDS011;11312;51.464;6.968;2023-03-11T08:16:27;2.85;;;1.50;;
22287;SDS011;11312;51.464;6.968;2023-03-11T08:18:53;2.75;;;1.40;;
22287;SDS011;11312;51.464;6.968;2023-03-11T08:21:20;2.58;;;1.48;;
22287;SDS011;11312;51.464;6.968;2023-03-11T08:23:51;3.60;;;1.70;;
22287;SDS011;11312;51.464;6.968;2023-03-11T08:26:18;3.33;;;1.70;;
22287;SDS011;11312;51.464;6.968;2023-03-11T08:28:45;2.85;;;1.50;;
22287;SDS011;11312;51.464;6.968;2023-03-11T08:31:13;2.28;;;1.40;;
22287;SDS011;11312;51.464;6.968;2023-03-11T08:33:40;1.95;;;1.38;;
22287;SDS011;11312;51.464;6.968;2023-03-11T08:36:07;2.53;;;1.50;;
22287;SDS011;11312;51.464;6.968;2023-03-11T08:38:33;2.05;;;1.33;;
22287;SDS011;11312;51.464;6.968;2023-03-11T08:40:58;1.63;;;1.30;;
22287;SDS011;11312;51.464;6.968;2023-03-11T08:43:25;2.70;;;1.70;;
22287;SDS011;11312;51.464;6.968;2023-03-11T08:45:50;1.95;;;1.40;;
22287;SDS011;11312;51.464;6.968;2023-03-11T08:48:16;2.65;;;1.67;;
22287;SDS011;11312;51.464;6.968;2023-03-11T08:50:42;2.58;;;1.48;;
22287;SDS011;11312;51.464;6.968;2023-03-11T08:53:08;2.90;;;1.63;;
22287;SDS011;11312;51.464;6.968;2023-03-11T08:55:33;1.60;;;1.30;;
22287;SDS011;11312;51.464;6.968;2023-03-11T08:57:59;1.70;;;1.30;;
22287;SDS011;11312;51.464;6.968;2023-03-11T09:00:26;1.55;;;1.27;;
22287;SDS011;11312;51.464;6.968;2023-03-11T09:02:52;1.95;;;1.30;;
22287;SDS011;11312;51.464;6.968;2023-03-11T09:05:17;2.05;;;1.30;;
22287;SDS011;11312;51.464;6.968;2023-03-11T09:07:43;3.28;;;1.50;;
22287;SDS011;11312;51.464;6.968;2023-03-11T09:10:10;2.35;;;1.40;;
22287;SDS011;11312;51.464;6.968;2023-03-11T09:12:38;2.20;;;1.40;;
22287;SDS011;11312;51.464;6.968;2023-03-11T09:15:04;2.30;;;1.40;;
22287;SDS011;11312;51.464;6.968;2023-03-11T09:17:30;3.35;;;1.77;;
22287;SDS011;11312;51.464;6.968;2023-03-11T09:19:56;2.17;;;1.40;;
22287;SDS011;11312;51.464;6.968;2023-03-11T09:22:21;3.38;;;1.75;;
22287;SDS011;11312;51.464;6.968;2023-03-11T09:24:47;2.33;;;1.40;;
22287;SDS011;11312;51.464;6.968;2023-03-11T09:27:12;2.58;;;1.50;;
22287;SDS011;11312;51.464;6.968;2023-03-11T09:29:39;9.68;;;1.85;;
22287;SDS011;11312;51.464;6.968;2023-03-11T09:32:05;2.40;;;1.40;;
22287;SDS011;11312;51.464;6.968;2023-03-11T09:34:31;2.38;;;1.40;;
22287;SDS011;11312;51.464;6.968;2023-03-11T09:36:57;2.40;;;1.40;;
22287;SDS011;11312;51.464;6.968;2023-03-11T09:39:22;2.92;;;1.60;;
22287;SDS011;11312;51.464;6.968;2023-03-11T09:47:25;1.88;;;1.38;;
22287;SDS011;11312;51.464;6.968;2023-03-11T09:49:57;2.22;;;1.38;;
22287;SDS011;11312;51.464;6.968;2023-03-11T10:01:27;2.15;;;1.33;;
22287;SDS011;11312;51.464;6.968;2023-03-11T10:03:55;2.45;;;1.40;;
22287;SDS011;11312;51.464;6.968;2023-03-11T10:06:29;2.55;;;1.50;;
22287;SDS011;11312;51.464;6.968;2023-03-11T10:22:20;2.03;;;1.40;;
22287;SDS011;11312;51.464;6.968;2023-03-11T10:25:07;2.25;;;1.40;;
22287;SDS011;11312;51.464;6.968;2023-03-11T10:32:45;1.10;;;1.00;;
22287;SDS011;11312;51.464;6.968;2023-03-11T10:35:23;3.08;;;1.42;;
22287;SDS011;11312;51.464;6.968;2023-03-11T10:40:55;0.90;;;0.90;;
22287;SDS011;11312;51.464;6.968;2023-03-11T10:43:30;1.88;;;1.23;;
22287;SDS011;11312;51.464;6.968;2023-03-11T10:46:10;0.98;;;0.82;;
22287;SDS011;11312;51.464;6.968;2023-03-11T10:48:42;0.90;;;0.90;;
22287;SDS011;11312;51.464;6.968;2023-03-11T10:51:11;1.00;;;1.00;;
22287;SDS011;11312;51.464;6.968;2023-03-11T10:53:56;1.20;;;1.10;;
22287;SDS011;11312;51.464;6.968;2023-03-11T10:56:26;1.30;;;1.20;;
22287;SDS011;11312;51.464;6.968;2023-03-11T10:58:56;3.88;;;1.80;;
22287;SDS011;11312;51.464;6.968;2023-03-11T11:01:23;2.17;;;1.40;;
22287;SDS011;11312;51.464;6.968;2023-03-11T11:03:50;1.65;;;1.30;;
22287;SDS011;11312;51.464;6.968;2023-03-11T11:06:52;1.77;;;1.40;;
22287;SDS011;11312;51.464;6.968;2023-03-11T11:09:18;2.45;;;2.03;;
22287;SDS011;11312;51.464;6.968;2023-03-11T11:17:27;1.80;;;1.35;;
22287;SDS011;11312;51.464;6.968;2023-03-11T11:19:56;1.90;;;1.30;;
22287;SDS011;11312;51.464;6.968;2023-03-11T11:22:23;2.25;;;1.40;;
22287;SDS011;11312;51.464;6.968;2023-03-11T11:24:50;2.45;;;1.42;;
22287;SDS011;11312;51.464;6.968;2023-03-11T11:27:19;2.47;;;1.53;;
22287;SDS011;11312;51.464;6.968;2023-03-11T11:29:47;3.33;;;1.63;;
22287;SDS011;11312;51.464;6.968;2023-03-11T11:32:28;2.22;;;1.38;;
22287;SDS011;11312;51.464;6.968;2023-03-11T11:34:57;1.98;;;1.30;;
22287;SDS011;11312;51.464;6.968;2023-03-11T11:37:30;2.08;;;1.38;;
22287;SDS011;11312;51.464;6.968;2023-03-11T11:40:05;1.30;;;1.20;;
22287;SDS011;11312;51.464;6.968;2023-03-11T11:45:39;1.73;;;1.20;;
22287;SDS011;11312;51.464;6.968;2023-03-11T11:51:07;1.27;;;1.10;;
22287;SDS011;11312;51.464;6.968;2023-03-11T11:53:50;1.23;;;1.10;;
22287;SDS011;11312;51.464;6.968;2023-03-11T11:56:26;2.65;;;1.58;;
22287;SDS011;11312;51.464;6.968;2023-03-11T11:58:52;1.73;;;1.30;;
22287;SDS011;11312;51.464;6.968;2023-03-11T12:01:22;1.20;;;1.10;;
22287;SDS011;11312;51.464;6.968;2023-03-11T12:06:38;1.88;;;1.10;;
22287;SDS011;11312;51.464;6.968;2023-03-11T12:09:24;0.80;;;0.80;;
22287;SDS011;11312;51.464;6.968;2023-03-11T12:17:34;0.93;;;0.88;;
22287;SDS011;11312;51.464;6.968;2023-03-11T12:23:17;0.80;;;0.80;;
22287;SDS011;11312;51.464;6.968;2023-03-11T12:26:00;0.90;;;0.90;;
22287;SDS011;11312;51.464;6.968;2023-03-11T12:31:13;2.75;;;1.80;;
22287;SDS011;11312;51.464;6.968;2023-03-11T12:38:49;1.30;;;1.20;;
22287;SDS011;11312;51.464;6.968;2023-03-11T12:47:30;1.75;;;1.30;;
22287;SDS011;11312;51.464;6.968;2023-03-11T12:49:37;2.47;;;1.45;;
22287;SDS011;11312;51.464;6.968;2023-03-11T13:07:53;1.42;;;1.00;;
22287;SDS011;11312;51.464;6.968;2023-03-11T13:10:37;0.60;;;0.60;;
22287;SDS011;11312;51.464;6.968;2023-03-11T13:18:23;1.52;;;1.08;;
22287;SDS011;11312;51.464;6.968;2023-03-11T13:20:52;0.82;;;0.80;;
22287;SDS011;11312;51.464;6.968;2023-03-11T13:23:23;2.05;;;1.27;;
22287;SDS011;11312;51.464;6.968;2023-03-11T13:31:22;1.67;;;1.10;;
22287;SDS011;11312;51.464;6.968;2023-03-11T13:42:47;1.35;;;1.15;;
22287;SDS011;11312;51.464;6.968;2023-03-11T13:45:24;1.35;;;1.20;;
22287;SDS011;11312;51.464;6.968;2023-03-11T13:47:55;0.90;;;0.90;;
22287;SDS011;11312;51.464;6.968;2023-03-11T13:50:41;1.00;;;0.98;;
22287;SDS011;11312;51.464;6.968;2023-03-11T13:53:55;1.27;;;1.00;;
22287;SDS011;11312;51.464;6.968;2023-03-11T13:58:50;1.17;;;1.08;;
22287;SDS011;11312;51.464;6.968;2023-03-11T14:01:16;1.60;;;1.30;;
22287;SDS011;11312;51.464;6.968;2023-03-11T14:03:43;1.35;;;1.13;;
22287;SDS011;11312;51.464;6.968;2023-03-11T14:06:14;1.63;;;1.20;;
22287;SDS011;11312;51.464;6.968;2023-03-11T14:08:42;1.70;;;1.13;;
22287;SDS011;11312;51.464;6.968;2023-03-11T14:11:23;1.20;;;1.10;;
22287;SDS011;11312;51.464;6.968;2023-03-11T14:13:56;1.58;;;1.20;;
22287;SDS011;11312;51.464;6.968;2023-03-11T14:16:22;1.45;;;1.15;;
22287;SDS011;11312;51.464;6.968;2023-03-11T14:19:02;1.48;;;1.10;;
22287;SDS011;11312;51.464;6.968;2023-03-11T14:21:28;1.30;;;1.13;;
22287;SDS011;11312;51.464;6.968;2023-03-11T14:23:55;1.40;;;1.10;;
22287;SDS011;11312;51.464;6.968;2023-03-11T14:26:23;2.25;;;1.50;;
22287;SDS011;11312;51.464;6.968;2023-03-11T14:28:53;1.65;;;1.30;;
22287;SDS011;11312;51.464;6.968;2023-03-11T14:31:22;1.98;;;1.33;;
22287;SDS011;11312;51.464;6.968;2023-03-11T14:36:50;2.00;;;1.38;;
22287;SDS011;11312;51.464;6.968;2023-03-11T14:41:48;1.83;;;1.30;;
22287;SDS011;11312;51.464;6.968;2023-03-11T14:44:16;2.00;;;1.38;;
22287;SDS011;11312;51.464;6.968;2023-03-11T14:46:42;2.13;;;1.30;;
22287;SDS011;11312;51.464;6.968;2023-03-11T14:49:12;1.30;;;1.20;;
22287;SDS011;11312;51.464;6.968;2023-03-11T14:51:42;3.33;;;1.90;;
22287;SDS011;11312;51.464;6.968;2023-03-11T14:56:46;1.40;;;1.20;;
22287;SDS011;11312;51.464;6.968;2023-03-11T14:59:25;1.98;;;1.40;;
22287;SDS011;11312;51.464;6.968;2023-03-11T15:01:56;2.00;;;1.40;;
22287;SDS011;11312;51.464;6.968;2023-03-11T15:04:32;3.47;;;1.75;;
22287;SDS011;11312;51.464;6.968;2023-03-11T15:07:02;2.17;;;1.40;;
22287;SDS011;11312;51.464;6.968;2023-03-11T15:09:29;2.22;;;1.40;;
22287;SDS011;11312;51.464;6.968;2023-03-11T15:11:56;2.35;;;1.38;;
22287;SDS011;11312;51.464;6.968;2023-03-11T15:17:07;1.77;;;1.33;;
22287;SDS011;11312;51.464;6.968;2023-03-11T15:19:42;1.88;;;1.30;;
22287;SDS011;11312;51.464;6.968;2023-03-11T15:24:52;9.63;;;1.70;;
22287;SDS011;11312;51.464;6.968;2023-03-11T15:27:26;2.50;;;1.50;;
22287;SDS011;11312;51.464;6.968;2023-03-11T15:29:54;2.63;;;1.50;;
22287;SDS011;11312;51.464;6.968;2023-03-11T15:37:38;2.15;;;1.33;;
22287;SDS011;11312;51.464;6.968;2023-03-11T15:40:17;4.28;;;1.70;;
22287;SDS011;11312;51.464;6.968;2023-03-11T15:42:49;3.55;;;1.75;;
22287;SDS011;11312;51.464;6.968;2023-03-11T15:45:48;3.40;;;1.73;;
22287;SDS011;11312;51.464;6.968;2023-03-11T15:48:15;2.92;;;1.60;;
22287;SDS011;11312;51.464;6.968;2023-03-11T15:50:51;2.65;;;1.50;;
22287;SDS011;11312;51.464;6.968;2023-03-11T15:53:21;4.53;;;2.20;;
22287;SDS011;11312;51.464;6.968;2023-03-11T15:55:48;3.13;;;1.65;;
22287;SDS011;11312;51.464;6.968;2023-03-11T15:58:16;2.85;;;1.60;;
22287;SDS011;11312;51.464;6.968;2023-03-11T16:00:45;3.92;;;2.03;;
22287;SDS011;11312;51.464;6.968;2023-03-11T16:03:12;3.08;;;1.65;;
22287;SDS011;11312;51.464;6.968;2023-03-11T16:05:38;4.03;;;1.85;;
22287;SDS011;11312;51.464;6.968;2023-03-11T16:08:04;2.83;;;1.52;;
22287;SDS011;11312;51.464;6.968;2023-03-11T16:10:30;3.00;;;1.60;;
22287;SDS011;11312;51.464;6.968;2023-03-11T16:12:56;8.45;;;2.45;;
22287;SDS011;11312;51.464;6.968;2023-03-11T16:15:23;4.20;;;2.10;;
22287;SDS011;11312;51.464;6.968;2023-03-11T16:17:52;3.63;;;1.80;;
22287;SDS011;11312;51.464;6.968;2023-03-11T16:20:20;2.35;;;1.50;;
22287;SDS011;11312;51.464;6.968;2023-03-11T16:22:48;5.13;;;2.30;;
22287;SDS011;11312;51.464;6.968;2023-03-11T16:25:20;3.83;;;1.73;;
22287;SDS011;11312;51.464;6.968;2023-03-11T16:27:49;3.85;;;1.75;;
22287;SDS011;11312;51.464;6.968;2023-03-11T16:30:17;4.55;;;2.30;;
22287;SDS011;11312;51.464;6.968;2023-03-11T16:32:42;5.75;;;2.03;;
22287;SDS011;11312;51.464;6.968;2023-03-11T16:35:08;2.63;;;1.50;;
22287;SDS011;11312;51.464;6.968;2023-03-11T16:37:35;3.17;;;1.67;;
22287;SDS011;11312;51.464;6.968;2023-03-11T16:40:00;2.95;;;1.60;;
22287;SDS011;11312;51.464;6.968;2023-03-11T16:42:26;4.40;;;1.88;;
22287;SDS011;11312;51.464;6.968;2023-03-11T16:44:52;4.28;;;1.95;;
22287;SDS011;11312;51.464;6.968;2023-03-11T16:47:17;2.95;;;1.63;;
22287;SDS011;11312;51.464;6.968;2023-03-11T16:49:43;3.58;;;1.70;;
22287;SDS011;11312;51.464;6.968;2023-03-11T16:52:09;3.97;;;1.80;;
22287;SDS011;11312;51.464;6.968;2023-03-11T16:54:34;4.15;;;1.90;;
22287;SDS011;11312;51.464;6.968;2023-03-11T16:57:00;5.30;;;2.30;;
22287;SDS011;11312;51.464;6.968;2023-03-11T16:59:27;4.28;;;1.95;;
22287;SDS011;11312;51.464;6.968;2023-03-11T17:01:52;4.07;;;2.10;;
22287;SDS011;11312;51.464;6.968;2023-03-11T17:04:18;4.65;;;2.00;;
22287;SDS011;11312;51.464;6.968;2023-03-11T17:06:44;4.35;;;2.00;;
22287;SDS011;11312;51.464;6.968;2023-03-11T17:09:09;3.85;;;1.73;;
22287;SDS011;11312;51.464;6.968;2023-03-11T17:11:35;5.38;;;1.92;;
22287;SDS011;11312;51.464;6.968;2023-03-11T17:14:01;5.85;;;2.50;;